Hawaii METAR Reports

 

PHOG - Kahului, Hawaii, USA
Distance from station: WNW 8mi, 13km
Updated: Thu, 23-Nov-2017 11:54am HST
Partly Cloudy
Partly Cloudy
 Wind from NE
Wind: NE 22 mph , 35 km/h, Gust: 31 mph , 50 km/h
Temperature: 75°F , 24°C
Dew Point: 66°F , 19°C
Humidity: 74%
Barometer: 30.09 inHg , 1019 hPa
Clouds: Partly Cloudy
Visibility: 10 miles , 16 km
Cloud details: Few Clouds 2000 ft
Partly Cloudy 3500 ft
Partly Cloudy 6000 ft
2017/11/23 21:54 PHOG 232154Z 04019G27KT 10SM FEW020 SCT035 SCT060 24/19 A3009 RMK AO2 PK WND 04027/2055 RAB38E53 SLP193 P0004 T02390194
PHJH - Lahaina/West Mau, Hawaii, USA
Distance from station: WNW 24mi, 39km
Updated: Thu, 23-Nov-2017 11:45am HST
Mostly Cloudy
Mostly Cloudy
 Wind from NNE
Wind: NNE 18 mph , 30 km/h, Gust: 30 mph , 48 km/h
Temperature: 72°F , 22°C
Dew Point: 63°F , 17°C
Humidity: 73%
Barometer: 30.09 inHg , 1019 hPa
Clouds: Mostly Cloudy
Visibility: 15 miles , 24 km
Cloud details: Few Clouds 3000 ft
Partly Cloudy 3500 ft
Mostly Cloudy 6000 ft
2017/11/23 21:45 PHJH 232145Z 02016G26KT 15SM FEW030 SCT035 BKN060 22/17 A3009
 
PHNY - Lanai City Airpo, Hawaii, USA
Distance from station: W 40mi, 65km
Updated: Thu, 23-Nov-2017 11:56am HST
Partly Cloudy
Partly Cloudy
 Wind from NE
Wind: NE 29 mph , 46 km/h, Gust: 40 mph , 65 km/h
Temperature: 73°F , 23°C
Dew Point: 63°F , 17°C
Humidity: 69%
Barometer: 30.08 inHg , 1018.6 hPa
Clouds: Partly Cloudy
Visibility: 10 miles , 16 km
Cloud details: Partly Cloudy 1500 ft
2017/11/23 21:56 PHNY 232156Z AUTO 04025G35KT 10SM SCT015 23/17 A3008 RMK AO2 PK WND 03038/2059 SLP169 T02280167
PHMK - Molokai, Hawaii, USA
Distance from station: WNW 55mi, 88km
Updated: Thu, 23-Nov-2017 12:14pm HST
Mostly Cloudy
Mostly Cloudy
 Wind from NNE
Wind: NNE 21 mph , 33 km/h, Gust: 28 mph , 44 km/h
Temperature: 73°F , 23°C
Dew Point: 64°F , 18°C
Humidity: 74%
Barometer: 30.08 inHg , 1018.6 hPa
Clouds: Mostly Cloudy
Visibility: 10 miles , 16 km
Cloud details: Few Clouds 2300 ft
Mostly Cloudy 2900 ft
Mostly Cloudy 3800 ft
2017/11/23 22:14 PHMK 232214Z 03018G24KT 10SM FEW023 BKN029 BKN038 23/18 A3008 RMK AO2 T02330178
 
PHKO - Kailua/Kona, Hawaii, USA
Distance from station: SSE 79mi, 128km
Updated: Thu, 23-Nov-2017 11:53am HST
Partly Cloudy
Partly Cloudy
 Wind from N
Wind: N 8 mph , 13 km/h
Temperature: 81°F , 27°C
Heat Index: 82°F , 28°C
Dew Point: 61°F , 16°C
Humidity: 51%
Barometer: 30.00 inHg , 1015.9 hPa
Clouds: Partly Cloudy
Visibility: 10 miles , 16 km
Cloud details: Partly Cloudy 6000 ft
2017/11/23 21:53 PHKO 232153Z 35007KT 10SM SCT060 27/16 A3000 RMK AO2 PK WND 04029/2100 SLP159 T02720156
PHSF - Bradshaw Aaf/Haw, Hawaii, USA
Distance from station: SE 90mi, 145km
Updated: Thu, 23-Nov-2017 11:56am HST
Clear
Clear
 Wind from S
Wind: S 12 mph , 19 km/h, Gust: 16 mph , 26 km/h
Temperature: 64°F , 18°C
Dew Point: 50°F , 10°C
Humidity: 60%
Barometer: 30.29 inHg , 1025.7 hPa
Clouds: Clear
Visibility: 10 miles , 16 km
2017/11/23 21:56 PHSF 232156Z AUTO 18010G14KT 10SM CLR 18/10 A3029 RMK AO2 SLP156 WND DATA ESTMD T01760098 PWINO $
 
PHNG - Kaneohe Mcas, Hawaii, USA
Distance from station: WNW 102mi, 164km
Updated: Thu, 23-Nov-2017 11:57am HST
Mostly Cloudy
Mostly Cloudy
 Wind from NE
Wind: NE 18 mph , 30 km/h, Gust: 29 mph , 46 km/h
Temperature: 79°F , 26°C
Dew Point: 63°F , 17°C
Humidity: 58%
Barometer: 30.08 inHg , 1018.6 hPa
Clouds: Mostly Cloudy
Visibility: 10 miles , 16 km
Cloud details: Partly Cloudy 3600 ft
Mostly Cloudy 4500 ft
Mostly Cloudy 6000 ft
2017/11/23 21:57 PHNG 232157Z 05016G25KT 10SM SCT036 BKN045 BKN060 26/17 A3008 RMK AO2 SLP181 T02610172 $
PHNL - Honolulu, Hawaii, USA
Distance from station: WNW 108mi, 174km
Updated: Thu, 23-Nov-2017 11:53am HST
Partly Cloudy
Partly Cloudy
 Wind from NNE
Wind: NNE 18 mph , 30 km/h, Gust: 25 mph , 41 km/h
Temperature: 82°F , 28°C
Heat Index: 82°F , 28°C
Dew Point: 57°F , 14°C
Humidity: 42%
Barometer: 30.08 inHg , 1018.6 hPa
Clouds: Partly Cloudy
Visibility: 10 miles , 16 km
Cloud details: Few Clouds 2700 ft
Partly Cloudy 4800 ft
2017/11/23 21:53 PHNL 232153Z 02016G22KT 10SM FEW027 SCT048 28/14 A3008 RMK AO2 SLP187 T02780144
 
PHTO - Hilo, Hawaii, USA
Distance from station: SE 114mi, 183km
Updated: Thu, 23-Nov-2017 11:53am HST
Mostly Cloudy
Mostly Cloudy
 Wind from NNE
Wind: NNE 14 mph , 22 km/h
Temperature: 79°F , 26°C
Dew Point: 64°F , 18°C
Humidity: 61%
Barometer: 30.06 inHg , 1017.9 hPa
Clouds: Mostly Cloudy
Visibility: 10 miles , 16 km
Cloud details: Few Clouds 3500 ft
Partly Cloudy 4400 ft
Mostly Cloudy 7500 ft
2017/11/23 21:53 PHTO 232153Z 03012KT 10SM FEW035 SCT044 BKN075 26/18 A3006 RMK AO2 SLP176 T02560183
PHJR - Kalaeloa, Hawaii, USA
Distance from station: WNW 117mi, 189km
Updated: Thu, 23-Nov-2017 11:53am HST
Clear
Clear
 Wind from NE
Wind: NE 14 mph , 22 km/h, Gust: 24 mph , 39 km/h
Temperature: 79°F , 26°C
Dew Point: 61°F , 16°C
Humidity: 54%
Barometer: 30.09 inHg , 1019 hPa
Clouds: Clear
Visibility: 10 miles , 16 km
2017/11/23 21:53 PHJR 232153Z 05012G21KT 10SM CLR 26/16 A3009 RMK AO2 SLP195 T02560156
 
PHHI - Wheeler Afb/Oahu, Hawaii, USA
Distance from station: WNW 120mi, 193km
Updated: Thu, 23-Nov-2017 11:56am HST
Mostly Cloudy
Mostly Cloudy
 Wind from NNE
Wind: NNE 17 mph , 28 km/h, Gust: 23 mph , 37 km/h
Temperature: 73°F , 23°C
Dew Point: 61°F , 16°C
Humidity: 65%
Barometer: 30.13 inHg , 1020.3 hPa
Clouds: Mostly Cloudy
Visibility: 10 miles , 16 km
Cloud details: Partly Cloudy 3900 ft
Mostly Cloudy 4900 ft
2017/11/23 21:56 PHHI 232156Z AUTO 03015G20KT 10SM SCT039 BKN049 23/16 A3013 RMK AO2 SLP195 T02260159 FZRANO $
PHLI - Lihue/Kauai Is, Hawaii, USA
Distance from station: WNW 209mi, 336km
Updated: Thu, 23-Nov-2017 11:53am HST
Few Clouds
Few Clouds
 Wind from NNE
Wind: NNE 24 mph , 39 km/h
Temperature: 73°F , 23°C
Dew Point: 63°F , 17°C
Humidity: 69%
Barometer: 30.14 inHg , 1020.7 hPa
Clouds: Few Clouds
Visibility: 10 miles , 16 km
Cloud details: Few Clouds 6000 ft
2017/11/23 21:53 PHLI 232153Z 03021KT 10SM FEW060 23/17 A3014 RMK AO2 PK WND 03030/2114 SLP203 T02330172
 
PHBK - Barking Sands/Ka, Hawaii, USA
Distance from station: WNW 237mi, 382km
Updated: Thu, 23-Nov-2017 11:56am HST
Few Clouds
Few Clouds
 Wind from NNE
Wind: NNE 18 mph , 30 km/h
Temperature: 81°F , 27°C
Heat Index: 81°F , 27°C
Dew Point: 57°F , 14°C
Humidity: 45%
Barometer: 30.09 inHg , 1019 hPa
Clouds: Few Clouds
Visibility: 10 miles , 16 km
Cloud details: Few Clouds 5500 ft
2017/11/23 21:56 PHBK 232156Z AUTO 02016KT 10SM FEW055 27/14 A3009 RMK AO2 WSHFT 2139 SLP190 T02670144 $